sensor_id;sensor_type;location;lat;lon;timestamp;P1;durP1;ratioP1;P2;durP2;ratioP2
29774;SDS011;16676;51.202;6.774;2023-07-13T00:00:59;3.78;;;1.20;;
29774;SDS011;16676;51.202;6.774;2023-07-13T00:05:01;2.47;;;0.93;;
29774;SDS011;16676;51.202;6.774;2023-07-13T00:09:04;2.47;;;1.00;;
29774;SDS011;16676;51.202;6.774;2023-07-13T00:13:06;1.95;;;0.90;;
29774;SDS011;16676;51.202;6.774;2023-07-13T00:17:08;2.38;;;0.82;;
29774;SDS011;16676;51.202;6.774;2023-07-13T00:21:11;3.92;;;1.15;;
29774;SDS011;16676;51.202;6.774;2023-07-13T00:25:15;2.58;;;0.88;;
29774;SDS011;16676;51.202;6.774;2023-07-13T00:29:17;2.30;;;0.90;;
29774;SDS011;16676;51.202;6.774;2023-07-13T00:33:20;3.20;;;1.10;;
29774;SDS011;16676;51.202;6.774;2023-07-13T00:37:23;3.45;;;0.93;;
29774;SDS011;16676;51.202;6.774;2023-07-13T00:41:26;1.60;;;0.88;;
29774;SDS011;16676;51.202;6.774;2023-07-13T00:50:19;2.13;;;0.90;;
29774;SDS011;16676;51.202;6.774;2023-07-13T00:54:23;3.80;;;0.93;;
29774;SDS011;16676;51.202;6.774;2023-07-13T00:58:29;3.35;;;0.98;;
29774;SDS011;16676;51.202;6.774;2023-07-13T01:02:31;4.13;;;1.15;;
29774;SDS011;16676;51.202;6.774;2023-07-13T01:06:34;2.85;;;1.10;;
29774;SDS011;16676;51.202;6.774;2023-07-13T01:10:36;4.78;;;0.90;;
29774;SDS011;16676;51.202;6.774;2023-07-13T01:14:41;4.18;;;1.15;;
29774;SDS011;16676;51.202;6.774;2023-07-13T01:18:43;8.23;;;1.10;;
29774;SDS011;16676;51.202;6.774;2023-07-13T01:22:46;3.90;;;1.13;;
29774;SDS011;16676;51.202;6.774;2023-07-13T01:26:48;2.60;;;1.05;;
29774;SDS011;16676;51.202;6.774;2023-07-13T01:30:50;3.53;;;1.27;;
29774;SDS011;16676;51.202;6.774;2023-07-13T01:34:51;4.60;;;1.17;;
29774;SDS011;16676;51.202;6.774;2023-07-13T01:38:56;2.78;;;1.10;;
29774;SDS011;16676;51.202;6.774;2023-07-13T01:42:58;2.58;;;0.90;;
29774;SDS011;16676;51.202;6.774;2023-07-13T01:47:01;3.08;;;1.10;;
29774;SDS011;16676;51.202;6.774;2023-07-13T01:51:03;3.45;;;1.17;;
29774;SDS011;16676;51.202;6.774;2023-07-13T01:55:07;3.05;;;1.05;;
29774;SDS011;16676;51.202;6.774;2023-07-13T01:59:09;2.42;;;0.85;;
29774;SDS011;16676;51.202;6.774;2023-07-13T02:03:11;3.88;;;1.40;;
29774;SDS011;16676;51.202;6.774;2023-07-13T02:07:18;3.30;;;1.05;;
29774;SDS011;16676;51.202;6.774;2023-07-13T02:11:21;2.63;;;1.10;;
29774;SDS011;16676;51.202;6.774;2023-07-13T02:15:23;2.97;;;0.90;;
29774;SDS011;16676;51.202;6.774;2023-07-13T02:19:25;3.88;;;1.20;;
29774;SDS011;16676;51.202;6.774;2023-07-13T02:23:27;4.22;;;1.20;;
29774;SDS011;16676;51.202;6.774;2023-07-13T02:27:30;3.38;;;1.02;;
29774;SDS011;16676;51.202;6.774;2023-07-13T02:31:32;2.53;;;0.80;;
29774;SDS011;16676;51.202;6.774;2023-07-13T02:35:35;2.65;;;1.05;;
29774;SDS011;16676;51.202;6.774;2023-07-13T02:39:36;3.20;;;0.85;;
29774;SDS011;16676;51.202;6.774;2023-07-13T02:43:40;2.40;;;0.88;;
29774;SDS011;16676;51.202;6.774;2023-07-13T02:47:42;2.72;;;1.05;;
29774;SDS011;16676;51.202;6.774;2023-07-13T02:51:44;2.50;;;0.77;;
29774;SDS011;16676;51.202;6.774;2023-07-13T02:55:45;2.42;;;0.93;;
29774;SDS011;16676;51.202;6.774;2023-07-13T02:59:49;4.20;;;1.25;;
29774;SDS011;16676;51.202;6.774;2023-07-13T03:03:51;2.65;;;0.80;;
29774;SDS011;16676;51.202;6.774;2023-07-13T03:07:53;5.20;;;1.10;;
29774;SDS011;16676;51.202;6.774;2023-07-13T03:11:55;2.90;;;0.95;;
29774;SDS011;16676;51.202;6.774;2023-07-13T03:15:59;2.28;;;0.88;;
29774;SDS011;16676;51.202;6.774;2023-07-13T03:20:00;2.28;;;0.82;;
29774;SDS011;16676;51.202;6.774;2023-07-13T03:24:03;2.97;;;1.00;;
29774;SDS011;16676;51.202;6.774;2023-07-13T03:28:05;3.05;;;1.30;;
29774;SDS011;16676;51.202;6.774;2023-07-13T03:32:09;2.75;;;0.90;;
29774;SDS011;16676;51.202;6.774;2023-07-13T03:36:11;4.80;;;1.05;;
29774;SDS011;16676;51.202;6.774;2023-07-13T03:40:15;3.35;;;1.08;;
29774;SDS011;16676;51.202;6.774;2023-07-13T03:44:17;3.67;;;1.30;;
29774;SDS011;16676;51.202;6.774;2023-07-13T03:48:21;3.17;;;0.90;;
29774;SDS011;16676;51.202;6.774;2023-07-13T03:52:23;2.15;;;0.90;;
29774;SDS011;16676;51.202;6.774;2023-07-13T03:56:25;2.80;;;0.90;;
29774;SDS011;16676;51.202;6.774;2023-07-13T04:00:27;2.03;;;0.90;;
29774;SDS011;16676;51.202;6.774;2023-07-13T04:04:30;3.50;;;1.00;;
29774;SDS011;16676;51.202;6.774;2023-07-13T04:08:33;3.95;;;1.00;;
29774;SDS011;16676;51.202;6.774;2023-07-13T04:12:36;3.25;;;1.13;;
29774;SDS011;16676;51.202;6.774;2023-07-13T04:16:38;3.15;;;1.10;;
29774;SDS011;16676;51.202;6.774;2023-07-13T04:20:41;2.85;;;1.05;;
29774;SDS011;16676;51.202;6.774;2023-07-13T04:24:43;4.32;;;1.10;;
29774;SDS011;16676;51.202;6.774;2023-07-13T04:28:45;3.45;;;1.17;;
29774;SDS011;16676;51.202;6.774;2023-07-13T04:32:47;2.65;;;1.00;;
29774;SDS011;16676;51.202;6.774;2023-07-13T04:36:51;1.95;;;0.90;;
29774;SDS011;16676;51.202;6.774;2023-07-13T04:40:54;1.83;;;0.80;;
29774;SDS011;16676;51.202;6.774;2023-07-13T04:44:56;2.72;;;1.00;;
29774;SDS011;16676;51.202;6.774;2023-07-13T04:48:58;2.40;;;0.75;;
29774;SDS011;16676;51.202;6.774;2023-07-13T04:53:02;4.38;;;1.05;;
29774;SDS011;16676;51.202;6.774;2023-07-13T04:57:05;3.65;;;1.15;;
29774;SDS011;16676;51.202;6.774;2023-07-13T05:01:07;3.30;;;1.25;;
29774;SDS011;16676;51.202;6.774;2023-07-13T05:05:10;3.50;;;1.00;;
29774;SDS011;16676;51.202;6.774;2023-07-13T05:09:14;2.38;;;1.00;;
29774;SDS011;16676;51.202;6.774;2023-07-13T05:13:16;4.95;;;1.30;;
29774;SDS011;16676;51.202;6.774;2023-07-13T05:17:19;4.18;;;0.98;;
29774;SDS011;16676;51.202;6.774;2023-07-13T05:21:21;5.95;;;1.10;;
29774;SDS011;16676;51.202;6.774;2023-07-13T05:25:24;2.83;;;1.25;;
29774;SDS011;16676;51.202;6.774;2023-07-13T05:29:26;3.35;;;1.33;;
29774;SDS011;16676;51.202;6.774;2023-07-13T05:33:28;3.63;;;1.30;;
29774;SDS011;16676;51.202;6.774;2023-07-13T05:37:30;4.65;;;1.23;;
29774;SDS011;16676;51.202;6.774;2023-07-13T05:41:33;3.50;;;1.35;;
29774;SDS011;16676;51.202;6.774;2023-07-13T05:45:35;6.22;;;1.40;;
29774;SDS011;16676;51.202;6.774;2023-07-13T05:49:37;3.08;;;0.93;;
29774;SDS011;16676;51.202;6.774;2023-07-13T05:53:39;5.38;;;1.30;;
29774;SDS011;16676;51.202;6.774;2023-07-13T05:57:43;3.70;;;1.23;;
29774;SDS011;16676;51.202;6.774;2023-07-13T06:01:45;3.00;;;1.40;;
29774;SDS011;16676;51.202;6.774;2023-07-13T06:05:47;2.90;;;1.23;;
29774;SDS011;16676;51.202;6.774;2023-07-13T06:09:48;3.03;;;0.95;;
29774;SDS011;16676;51.202;6.774;2023-07-13T06:13:52;3.25;;;1.17;;
29774;SDS011;16676;51.202;6.774;2023-07-13T06:17:55;3.95;;;1.80;;
29774;SDS011;16676;51.202;6.774;2023-07-13T06:21:57;4.55;;;1.20;;
29774;SDS011;16676;51.202;6.774;2023-07-13T06:25:59;4.40;;;1.40;;
29774;SDS011;16676;51.202;6.774;2023-07-13T06:30:03;7.35;;;2.13;;
29774;SDS011;16676;51.202;6.774;2023-07-13T06:34:05;5.10;;;1.33;;
29774;SDS011;16676;51.202;6.774;2023-07-13T06:38:07;3.13;;;1.33;;
29774;SDS011;16676;51.202;6.774;2023-07-13T06:42:09;5.38;;;1.40;;
29774;SDS011;16676;51.202;6.774;2023-07-13T06:46:13;4.30;;;1.35;;
29774;SDS011;16676;51.202;6.774;2023-07-13T06:50:15;3.75;;;1.42;;
29774;SDS011;16676;51.202;6.774;2023-07-13T06:54:17;4.93;;;1.55;;
29774;SDS011;16676;51.202;6.774;2023-07-13T06:58:19;3.85;;;1.50;;
29774;SDS011;16676;51.202;6.774;2023-07-13T07:02:22;4.57;;;1.70;;
29774;SDS011;16676;51.202;6.774;2023-07-13T07:06:24;6.20;;;1.50;;
29774;SDS011;16676;51.202;6.774;2023-07-13T07:10:26;6.20;;;1.40;;
29774;SDS011;16676;51.202;6.774;2023-07-13T07:14:30;5.15;;;1.30;;
29774;SDS011;16676;51.202;6.774;2023-07-13T07:18:35;5.28;;;1.42;;
29774;SDS011;16676;51.202;6.774;2023-07-13T07:22:38;3.92;;;1.38;;
29774;SDS011;16676;51.202;6.774;2023-07-13T07:26:40;4.93;;;1.50;;
29774;SDS011;16676;51.202;6.774;2023-07-13T07:30:42;5.28;;;1.40;;
29774;SDS011;16676;51.202;6.774;2023-07-13T07:34:45;4.05;;;1.52;;
29774;SDS011;16676;51.202;6.774;2023-07-13T07:38:47;5.60;;;1.38;;
29774;SDS011;16676;51.202;6.774;2023-07-13T07:42:49;4.93;;;1.38;;
29774;SDS011;16676;51.202;6.774;2023-07-13T07:46:51;4.97;;;1.75;;
29774;SDS011;16676;51.202;6.774;2023-07-13T07:50:54;5.43;;;1.65;;
29774;SDS011;16676;51.202;6.774;2023-07-13T07:54:57;3.65;;;1.23;;
29774;SDS011;16676;51.202;6.774;2023-07-13T07:58:59;5.68;;;1.73;;
29774;SDS011;16676;51.202;6.774;2023-07-13T08:03:01;4.85;;;1.70;;
29774;SDS011;16676;51.202;6.774;2023-07-13T08:07:05;5.05;;;1.67;;
29774;SDS011;16676;51.202;6.774;2023-07-13T08:11:08;5.47;;;1.90;;
29774;SDS011;16676;51.202;6.774;2023-07-13T08:15:12;4.65;;;1.63;;
29774;SDS011;16676;51.202;6.774;2023-07-13T08:19:15;4.53;;;1.60;;
29774;SDS011;16676;51.202;6.774;2023-07-13T08:23:18;6.25;;;1.60;;
29774;SDS011;16676;51.202;6.774;2023-07-13T08:27:20;7.35;;;1.90;;
29774;SDS011;16676;51.202;6.774;2023-07-13T08:31:22;4.25;;;1.40;;
29774;SDS011;16676;51.202;6.774;2023-07-13T08:35:24;3.38;;;1.50;;
29774;SDS011;16676;51.202;6.774;2023-07-13T08:39:28;8.35;;;1.75;;
29774;SDS011;16676;51.202;6.774;2023-07-13T08:43:33;3.20;;;1.40;;
29774;SDS011;16676;51.202;6.774;2023-07-13T08:47:40;4.45;;;1.45;;
29774;SDS011;16676;51.202;6.774;2023-07-13T08:52:01;4.43;;;1.35;;
29774;SDS011;16676;51.202;6.774;2023-07-13T08:56:09;6.10;;;1.67;;
29774;SDS011;16676;51.202;6.774;2023-07-13T09:00:17;6.40;;;1.77;;
29774;SDS011;16676;51.202;6.774;2023-07-13T09:04:21;8.40;;;2.00;;
29774;SDS011;16676;51.202;6.774;2023-07-13T09:08:31;6.13;;;1.60;;
29774;SDS011;16676;51.202;6.774;2023-07-13T09:12:44;6.57;;;1.67;;
29774;SDS011;16676;51.202;6.774;2023-07-13T09:17:03;6.03;;;1.85;;
29774;SDS011;16676;51.202;6.774;2023-07-13T09:21:07;5.55;;;1.55;;
29774;SDS011;16676;51.202;6.774;2023-07-13T09:25:18;4.97;;;1.58;;
29774;SDS011;16676;51.202;6.774;2023-07-13T09:29:28;6.38;;;1.70;;
29774;SDS011;16676;51.202;6.774;2023-07-13T09:33:33;4.53;;;1.38;;
29774;SDS011;16676;51.202;6.774;2023-07-13T09:37:35;6.72;;;1.80;;
29774;SDS011;16676;51.202;6.774;2023-07-13T09:41:39;5.03;;;1.50;;
29774;SDS011;16676;51.202;6.774;2023-07-13T09:45:49;5.28;;;1.60;;
29774;SDS011;16676;51.202;6.774;2023-07-13T09:49:54;4.90;;;1.60;;
29774;SDS011;16676;51.202;6.774;2023-07-13T09:53:58;4.57;;;1.60;;
29774;SDS011;16676;51.202;6.774;2023-07-13T09:58:03;6.68;;;1.73;;
29774;SDS011;16676;51.202;6.774;2023-07-13T10:06:29;3.30;;;1.33;;
29774;SDS011;16676;51.202;6.774;2023-07-13T10:10:31;4.32;;;1.50;;
29774;SDS011;16676;51.202;6.774;2023-07-13T10:14:33;4.45;;;1.60;;
29774;SDS011;16676;51.202;6.774;2023-07-13T10:18:39;4.45;;;1.70;;
29774;SDS011;16676;51.202;6.774;2023-07-13T10:22:45;4.88;;;1.55;;
29774;SDS011;16676;51.202;6.774;2023-07-13T10:26:54;3.75;;;1.42;;
29774;SDS011;16676;51.202;6.774;2023-07-13T10:30:59;3.70;;;1.25;;
29774;SDS011;16676;51.202;6.774;2023-07-13T10:35:04;3.80;;;1.50;;
29774;SDS011;16676;51.202;6.774;2023-07-13T10:39:13;4.65;;;1.60;;
29774;SDS011;16676;51.202;6.774;2023-07-13T10:43:18;4.05;;;1.52;;
29774;SDS011;16676;51.202;6.774;2023-07-13T10:47:24;3.77;;;1.20;;
29774;SDS011;16676;51.202;6.774;2023-07-13T10:51:29;4.35;;;1.50;;
29774;SDS011;16676;51.202;6.774;2023-07-13T10:55:33;4.72;;;1.70;;
29774;SDS011;16676;51.202;6.774;2023-07-13T10:59:36;5.57;;;1.88;;
29774;SDS011;16676;51.202;6.774;2023-07-13T11:03:46;4.90;;;1.48;;
29774;SDS011;16676;51.202;6.774;2023-07-13T11:07:53;3.28;;;1.38;;
29774;SDS011;16676;51.202;6.774;2023-07-13T11:11:58;4.00;;;1.67;;
29774;SDS011;16676;51.202;6.774;2023-07-13T11:16:01;4.32;;;1.77;;
29774;SDS011;16676;51.202;6.774;2023-07-13T11:20:21;6.90;;;1.63;;
29774;SDS011;16676;51.202;6.774;2023-07-13T11:29:00;5.32;;;1.27;;
29774;SDS011;16676;51.202;6.774;2023-07-13T11:33:12;3.83;;;1.45;;
29774;SDS011;16676;51.202;6.774;2023-07-13T11:37:16;3.65;;;1.40;;
29774;SDS011;16676;51.202;6.774;2023-07-13T11:41:22;4.20;;;1.45;;
29774;SDS011;16676;51.202;6.774;2023-07-13T11:45:28;4.95;;;1.52;;
29774;SDS011;16676;51.202;6.774;2023-07-13T11:49:32;5.00;;;1.30;;
29774;SDS011;16676;51.202;6.774;2023-07-13T11:53:44;4.47;;;1.40;;
29774;SDS011;16676;51.202;6.774;2023-07-13T11:57:49;3.47;;;1.67;;
29774;SDS011;16676;51.202;6.774;2023-07-13T12:01:54;4.07;;;1.17;;
29774;SDS011;16676;51.202;6.774;2023-07-13T12:05:57;4.70;;;1.50;;
29774;SDS011;16676;51.202;6.774;2023-07-13T12:10:01;2.83;;;1.35;;
29774;SDS011;16676;51.202;6.774;2023-07-13T12:14:04;4.47;;;1.20;;
29774;SDS011;16676;51.202;6.774;2023-07-13T12:18:11;4.68;;;1.45;;
29774;SDS011;16676;51.202;6.774;2023-07-13T12:22:16;4.15;;;1.45;;
29774;SDS011;16676;51.202;6.774;2023-07-13T12:26:20;4.55;;;1.60;;
29774;SDS011;16676;51.202;6.774;2023-07-13T12:30:24;6.05;;;1.45;;
29774;SDS011;16676;51.202;6.774;2023-07-13T12:34:30;4.13;;;1.30;;
29774;SDS011;16676;51.202;6.774;2023-07-13T12:38:32;2.47;;;0.95;;
29774;SDS011;16676;51.202;6.774;2023-07-13T12:42:34;3.63;;;1.35;;
29774;SDS011;16676;51.202;6.774;2023-07-13T12:46:51;3.67;;;1.35;;
29774;SDS011;16676;51.202;6.774;2023-07-13T12:50:56;2.63;;;1.00;;
29774;SDS011;16676;51.202;6.774;2023-07-13T12:55:04;3.60;;;1.13;;
29774;SDS011;16676;51.202;6.774;2023-07-13T12:59:16;3.47;;;1.20;;
29774;SDS011;16676;51.202;6.774;2023-07-13T13:03:22;3.22;;;1.10;;
29774;SDS011;16676;51.202;6.774;2023-07-13T13:07:33;3.58;;;1.20;;
29774;SDS011;16676;51.202;6.774;2023-07-13T13:11:35;4.20;;;1.33;;
29774;SDS011;16676;51.202;6.774;2023-07-13T13:15:36;3.75;;;1.27;;
29774;SDS011;16676;51.202;6.774;2023-07-13T13:19:39;2.97;;;1.10;;
29774;SDS011;16676;51.202;6.774;2023-07-13T13:23:42;3.17;;;1.20;;
29774;SDS011;16676;51.202;6.774;2023-07-13T13:27:45;3.65;;;1.02;;
29774;SDS011;16676;51.202;6.774;2023-07-13T13:31:47;2.88;;;1.10;;
29774;SDS011;16676;51.202;6.774;2023-07-13T13:35:49;2.40;;;1.05;;
29774;SDS011;16676;51.202;6.774;2023-07-13T13:39:53;3.88;;;1.20;;
29774;SDS011;16676;51.202;6.774;2023-07-13T13:43:56;3.65;;;1.10;;
29774;SDS011;16676;51.202;6.774;2023-07-13T13:47:58;2.75;;;0.98;;
29774;SDS011;16676;51.202;6.774;2023-07-13T13:52:00;3.13;;;1.13;;
29774;SDS011;16676;51.202;6.774;2023-07-13T13:56:03;4.25;;;1.30;;
29774;SDS011;16676;51.202;6.774;2023-07-13T14:00:07;3.78;;;1.30;;
29774;SDS011;16676;51.202;6.774;2023-07-13T14:04:15;3.90;;;1.10;;
29774;SDS011;16676;51.202;6.774;2023-07-13T14:08:19;4.15;;;1.30;;
29774;SDS011;16676;51.202;6.774;2023-07-13T14:12:23;3.05;;;1.10;;
29774;SDS011;16676;51.202;6.774;2023-07-13T14:16:26;4.30;;;1.30;;
29774;SDS011;16676;51.202;6.774;2023-07-13T14:20:32;3.63;;;1.10;;
29774;SDS011;16676;51.202;6.774;2023-07-13T14:24:34;3.50;;;1.20;;
29774;SDS011;16676;51.202;6.774;2023-07-13T14:28:37;4.38;;;1.25;;
29774;SDS011;16676;51.202;6.774;2023-07-13T14:32:43;3.20;;;1.10;;
29774;SDS011;16676;51.202;6.774;2023-07-13T14:36:46;3.78;;;1.17;;
29774;SDS011;16676;51.202;6.774;2023-07-13T14:40:50;5.50;;;1.63;;
29774;SDS011;16676;51.202;6.774;2023-07-13T14:44:54;4.25;;;1.35;;
29774;SDS011;16676;51.202;6.774;2023-07-13T14:48:59;4.25;;;1.27;;
29774;SDS011;16676;51.202;6.774;2023-07-13T14:53:03;3.45;;;1.13;;
29774;SDS011;16676;51.202;6.774;2023-07-13T14:57:08;4.43;;;1.23;;
29774;SDS011;16676;51.202;6.774;2023-07-13T15:01:12;6.50;;;1.40;;
29774;SDS011;16676;51.202;6.774;2023-07-13T15:05:17;3.40;;;1.13;;
29774;SDS011;16676;51.202;6.774;2023-07-13T15:09:22;3.65;;;1.50;;
29774;SDS011;16676;51.202;6.774;2023-07-13T15:13:26;4.32;;;1.52;;
29774;SDS011;16676;51.202;6.774;2023-07-13T15:17:31;6.50;;;1.55;;
29774;SDS011;16676;51.202;6.774;2023-07-13T15:21:37;10.73;;;1.63;;
29774;SDS011;16676;51.202;6.774;2023-07-13T15:25:40;5.32;;;1.60;;
29774;SDS011;16676;51.202;6.774;2023-07-13T15:29:44;4.75;;;1.67;;
29774;SDS011;16676;51.202;6.774;2023-07-13T15:33:48;4.57;;;1.30;;
29774;SDS011;16676;51.202;6.774;2023-07-13T15:37:50;4.35;;;1.42;;
29774;SDS011;16676;51.202;6.774;2023-07-13T15:41:53;5.03;;;1.80;;
29774;SDS011;16676;51.202;6.774;2023-07-13T15:45:55;3.78;;;1.65;;
29774;SDS011;16676;51.202;6.774;2023-07-13T15:49:59;6.05;;;1.63;;
29774;SDS011;16676;51.202;6.774;2023-07-13T15:54:02;3.78;;;1.50;;
29774;SDS011;16676;51.202;6.774;2023-07-13T15:58:08;3.00;;;1.38;;
29774;SDS011;16676;51.202;6.774;2023-07-13T16:02:16;6.50;;;1.95;;
29774;SDS011;16676;51.202;6.774;2023-07-13T16:06:22;4.10;;;1.80;;
29774;SDS011;16676;51.202;6.774;2023-07-13T16:10:27;2.85;;;1.33;;
29774;SDS011;16676;51.202;6.774;2023-07-13T16:14:32;7.27;;;1.60;;
29774;SDS011;16676;51.202;6.774;2023-07-13T16:18:34;4.57;;;1.70;;
29774;SDS011;16676;51.202;6.774;2023-07-13T16:22:38;3.65;;;1.50;;
29774;SDS011;16676;51.202;6.774;2023-07-13T16:26:40;4.22;;;1.60;;
29774;SDS011;16676;51.202;6.774;2023-07-13T16:30:43;3.65;;;1.30;;
29774;SDS011;16676;51.202;6.774;2023-07-13T16:34:45;2.85;;;1.38;;
29774;SDS011;16676;51.202;6.774;2023-07-13T16:38:50;4.55;;;1.92;;
29774;SDS011;16676;51.202;6.774;2023-07-13T16:42:54;3.45;;;1.60;;
29774;SDS011;16676;51.202;6.774;2023-07-13T16:46:57;4.57;;;2.03;;
29774;SDS011;16676;51.202;6.774;2023-07-13T16:51:00;4.57;;;1.80;;
29774;SDS011;16676;51.202;6.774;2023-07-13T16:55:08;3.75;;;1.92;;
29774;SDS011;16676;51.202;6.774;2023-07-13T16:59:12;2.95;;;2.03;;
29774;SDS011;16676;51.202;6.774;2023-07-13T17:03:17;5.95;;;2.20;;
29774;SDS011;16676;51.202;6.774;2023-07-13T17:07:19;6.53;;;2.55;;
29774;SDS011;16676;51.202;6.774;2023-07-13T17:11:23;4.80;;;2.42;;
29774;SDS011;16676;51.202;6.774;2023-07-13T17:15:26;6.90;;;2.55;;
29774;SDS011;16676;51.202;6.774;2023-07-13T17:19:30;4.95;;;2.40;;
29774;SDS011;16676;51.202;6.774;2023-07-13T17:23:34;3.90;;;2.17;;
29774;SDS011;16676;51.202;6.774;2023-07-13T17:27:39;5.82;;;2.35;;
29774;SDS011;16676;51.202;6.774;2023-07-13T17:31:41;4.65;;;2.10;;
29774;SDS011;16676;51.202;6.774;2023-07-13T17:35:45;4.25;;;1.70;;
29774;SDS011;16676;51.202;6.774;2023-07-13T17:39:46;3.22;;;1.70;;
29774;SDS011;16676;51.202;6.774;2023-07-13T17:43:50;4.35;;;1.80;;
29774;SDS011;16676;51.202;6.774;2023-07-13T17:47:52;4.78;;;1.58;;
29774;SDS011;16676;51.202;6.774;2023-07-13T17:51:55;2.38;;;1.48;;
29774;SDS011;16676;51.202;6.774;2023-07-13T17:55:57;2.95;;;1.45;;
29774;SDS011;16676;51.202;6.774;2023-07-13T18:00:00;3.33;;;1.63;;
29774;SDS011;16676;51.202;6.774;2023-07-13T18:04:12;5.20;;;1.73;;
29774;SDS011;16676;51.202;6.774;2023-07-13T18:08:19;3.93;;;1.30;;
29774;SDS011;16676;51.202;6.774;2023-07-13T18:12:23;3.53;;;1.40;;
29774;SDS011;16676;51.202;6.774;2023-07-13T18:16:27;3.13;;;1.45;;
29774;SDS011;16676;51.202;6.774;2023-07-13T18:20:31;2.47;;;1.40;;
29774;SDS011;16676;51.202;6.774;2023-07-13T18:24:34;3.92;;;1.33;;
29774;SDS011;16676;51.202;6.774;2023-07-13T18:28:36;2.65;;;1.40;;
29774;SDS011;16676;51.202;6.774;2023-07-13T18:32:41;3.85;;;1.40;;
29774;SDS011;16676;51.202;6.774;2023-07-13T18:36:45;2.80;;;1.23;;
29774;SDS011;16676;51.202;6.774;2023-07-13T18:40:48;3.08;;;1.25;;
29774;SDS011;16676;51.202;6.774;2023-07-13T18:44:50;3.55;;;1.42;;
29774;SDS011;16676;51.202;6.774;2023-07-13T18:48:53;2.75;;;1.50;;
29774;SDS011;16676;51.202;6.774;2023-07-13T18:52:56;2.17;;;1.20;;
29774;SDS011;16676;51.202;6.774;2023-07-13T18:56:58;2.72;;;1.45;;
29774;SDS011;16676;51.202;6.774;2023-07-13T19:01:00;2.50;;;1.30;;
29774;SDS011;16676;51.202;6.774;2023-07-13T19:05:11;1.92;;;1.05;;
29774;SDS011;16676;51.202;6.774;2023-07-13T19:09:15;3.50;;;1.67;;
29774;SDS011;16676;51.202;6.774;2023-07-13T19:13:18;3.22;;;1.52;;
29774;SDS011;16676;51.202;6.774;2023-07-13T19:17:22;2.90;;;1.70;;
29774;SDS011;16676;51.202;6.774;2023-07-13T19:21:31;3.20;;;1.45;;
29774;SDS011;16676;51.202;6.774;2023-07-13T19:25:38;2.30;;;1.40;;
29774;SDS011;16676;51.202;6.774;2023-07-13T19:29:40;1.75;;;1.23;;
29774;SDS011;16676;51.202;6.774;2023-07-13T19:33:43;2.08;;;1.48;;
29774;SDS011;16676;51.202;6.774;2023-07-13T19:37:46;2.30;;;1.50;;
29774;SDS011;16676;51.202;6.774;2023-07-13T19:41:48;2.42;;;1.40;;
29774;SDS011;16676;51.202;6.774;2023-07-13T19:45:51;2.70;;;1.50;;
29774;SDS011;16676;51.202;6.774;2023-07-13T19:49:54;2.10;;;1.40;;
29774;SDS011;16676;51.202;6.774;2023-07-13T19:53:59;3.53;;;1.80;;
29774;SDS011;16676;51.202;6.774;2023-07-13T19:58:03;3.90;;;1.52;;
29774;SDS011;16676;51.202;6.774;2023-07-13T20:02:06;3.45;;;1.40;;
29774;SDS011;16676;51.202;6.774;2023-07-13T20:06:14;4.90;;;1.90;;
29774;SDS011;16676;51.202;6.774;2023-07-13T20:10:30;3.53;;;1.60;;
29774;SDS011;16676;51.202;6.774;2023-07-13T20:14:34;3.03;;;1.55;;
29774;SDS011;16676;51.202;6.774;2023-07-13T20:18:36;2.05;;;1.40;;
29774;SDS011;16676;51.202;6.774;2023-07-13T20:22:37;2.83;;;1.40;;
29774;SDS011;16676;51.202;6.774;2023-07-13T20:26:41;2.63;;;1.40;;
29774;SDS011;16676;51.202;6.774;2023-07-13T20:30:44;2.78;;;1.38;;
29774;SDS011;16676;51.202;6.774;2023-07-13T20:34:48;3.15;;;1.80;;
29774;SDS011;16676;51.202;6.774;2023-07-13T20:38:50;2.97;;;1.48;;
29774;SDS011;16676;51.202;6.774;2023-07-13T20:42:54;3.83;;;1.60;;
29774;SDS011;16676;51.202;6.774;2023-07-13T20:46:56;2.28;;;1.50;;
29774;SDS011;16676;51.202;6.774;2023-07-13T20:51:01;2.30;;;1.35;;
29774;SDS011;16676;51.202;6.774;2023-07-13T20:55:08;3.42;;;1.50;;
29774;SDS011;16676;51.202;6.774;2023-07-13T20:59:15;4.28;;;1.65;;
29774;SDS011;16676;51.202;6.774;2023-07-13T21:03:18;2.13;;;1.45;;
29774;SDS011;16676;51.202;6.774;2023-07-13T21:07:22;2.75;;;1.63;;
29774;SDS011;16676;51.202;6.774;2023-07-13T21:11:24;2.55;;;1.40;;
29774;SDS011;16676;51.202;6.774;2023-07-13T21:15:30;2.58;;;1.52;;
29774;SDS011;16676;51.202;6.774;2023-07-13T21:19:33;2.67;;;1.42;;
29774;SDS011;16676;51.202;6.774;2023-07-13T21:23:35;3.08;;;1.60;;
29774;SDS011;16676;51.202;6.774;2023-07-13T21:27:38;3.97;;;1.50;;
29774;SDS011;16676;51.202;6.774;2023-07-13T21:31:41;2.08;;;1.50;;
29774;SDS011;16676;51.202;6.774;2023-07-13T21:35:43;3.45;;;1.42;;
29774;SDS011;16676;51.202;6.774;2023-07-13T21:39:47;3.05;;;1.65;;
29774;SDS011;16676;51.202;6.774;2023-07-13T21:43:52;2.83;;;1.50;;
29774;SDS011;16676;51.202;6.774;2023-07-13T21:47:56;2.75;;;1.52;;
29774;SDS011;16676;51.202;6.774;2023-07-13T21:51:58;2.45;;;1.80;;
29774;SDS011;16676;51.202;6.774;2023-07-13T21:56:00;2.25;;;1.42;;
29774;SDS011;16676;51.202;6.774;2023-07-13T22:00:04;2.10;;;1.60;;
29774;SDS011;16676;51.202;6.774;2023-07-13T22:04:11;2.88;;;1.55;;
29774;SDS011;16676;51.202;6.774;2023-07-13T22:08:16;2.90;;;1.88;;
29774;SDS011;16676;51.202;6.774;2023-07-13T22:12:19;3.35;;;2.08;;
29774;SDS011;16676;51.202;6.774;2023-07-13T22:16:22;3.33;;;1.63;;
29774;SDS011;16676;51.202;6.774;2023-07-13T22:20:27;2.78;;;1.60;;
29774;SDS011;16676;51.202;6.774;2023-07-13T22:24:29;3.05;;;1.90;;
29774;SDS011;16676;51.202;6.774;2023-07-13T22:28:31;4.65;;;2.13;;
29774;SDS011;16676;51.202;6.774;2023-07-13T22:32:33;2.88;;;1.90;;
29774;SDS011;16676;51.202;6.774;2023-07-13T22:36:36;4.00;;;1.88;;
29774;SDS011;16676;51.202;6.774;2023-07-13T22:40:39;3.63;;;1.80;;
29774;SDS011;16676;51.202;6.774;2023-07-13T22:44:41;2.63;;;1.70;;
29774;SDS011;16676;51.202;6.774;2023-07-13T22:48:43;3.15;;;1.90;;
29774;SDS011;16676;51.202;6.774;2023-07-13T22:52:53;3.13;;;1.85;;
29774;SDS011;16676;51.202;6.774;2023-07-13T22:56:55;4.68;;;1.90;;
29774;SDS011;16676;51.202;6.774;2023-07-13T23:00:57;2.53;;;1.80;;
29774;SDS011;16676;51.202;6.774;2023-07-13T23:05:00;3.65;;;2.10;;
29774;SDS011;16676;51.202;6.774;2023-07-13T23:09:07;2.42;;;1.60;;
29774;SDS011;16676;51.202;6.774;2023-07-13T23:13:11;3.90;;;2.03;;
29774;SDS011;16676;51.202;6.774;2023-07-13T23:17:14;2.47;;;1.92;;
29774;SDS011;16676;51.202;6.774;2023-07-13T23:21:17;3.13;;;1.70;;
29774;SDS011;16676;51.202;6.774;2023-07-13T23:25:22;2.25;;;1.80;;
29774;SDS011;16676;51.202;6.774;2023-07-13T23:29:25;2.72;;;1.75;;
29774;SDS011;16676;51.202;6.774;2023-07-13T23:33:27;2.78;;;1.80;;
29774;SDS011;16676;51.202;6.774;2023-07-13T23:37:29;3.78;;;1.83;;
29774;SDS011;16676;51.202;6.774;2023-07-13T23:41:33;3.90;;;2.15;;
29774;SDS011;16676;51.202;6.774;2023-07-13T23:45:34;3.10;;;1.77;;
29774;SDS011;16676;51.202;6.774;2023-07-13T23:49:36;2.42;;;1.70;;
29774;SDS011;16676;51.202;6.774;2023-07-13T23:53:39;2.88;;;2.05;;
29774;SDS011;16676;51.202;6.774;2023-07-13T23:57:43;3.63;;;2.00;;
